createdAt,value
2022-09-23T00:02:22.063Z,66.59
2022-09-23T00:04:50.680Z,66.74
2022-09-23T00:07:19.001Z,66.47
2022-09-23T00:09:47.314Z,66.24
2022-09-23T00:12:16.979Z,66.24
2022-09-23T00:14:45.406Z,66.09
2022-09-23T00:17:14.030Z,66.44
2022-09-23T00:19:42.517Z,66.47
2022-09-23T00:22:10.872Z,66.79
2022-09-23T00:24:40.251Z,66.42
2022-09-23T00:27:09.846Z,66.54
2022-09-23T00:29:39.633Z,66.61
2022-09-23T00:32:08.016Z,66.77
2022-09-23T00:34:36.342Z,67.02
2022-09-23T00:37:04.893Z,67.06
2022-09-23T00:39:33.247Z,66.62
2022-09-23T00:42:01.990Z,66.45
2022-09-23T00:44:50.570Z,66.96
2022-09-23T00:47:24.829Z,67.01
2022-09-23T00:50:02.157Z,67.37
2022-09-23T00:52:32.174Z,67.17
2022-09-23T00:55:03.926Z,67.23
2022-09-23T00:57:32.973Z,66.75
2022-09-23T01:00:03.104Z,66.50
2022-09-23T01:02:32.919Z,66.30
2022-09-23T01:05:04.557Z,66.42
2022-09-23T01:07:32.906Z,66.19
2022-09-23T01:10:03.013Z,66.21
2022-09-23T01:12:54.316Z,66.31
2022-09-23T01:15:31.129Z,66.62
2022-09-23T01:18:09.594Z,66.55
2022-09-23T01:20:59.196Z,66.66
2022-09-23T01:24:16.653Z,66.91
2022-09-23T01:27:03.124Z,66.77
2022-09-23T01:30:00.376Z,67.34
2022-09-23T01:32:38.662Z,67.17
2022-09-23T01:35:14.347Z,66.97
2022-09-23T01:37:49.271Z,66.91
2022-09-23T01:40:21.979Z,67.05
2022-09-23T01:42:55.046Z,66.99
2022-09-23T01:45:30.040Z,67.54
2022-09-23T01:48:10.300Z,67.73
2022-09-23T01:50:59.425Z,68.22
2022-09-23T01:53:38.353Z,68.14
2022-09-23T01:56:12.265Z,67.52
2022-09-23T01:58:46.571Z,67.62
2022-09-23T02:01:20.921Z,67.49
2022-09-23T02:03:56.900Z,67.89
2022-09-23T02:06:31.065Z,67.62
2022-09-23T02:09:03.031Z,67.33
2022-09-23T02:11:36.456Z,67.78
2022-09-23T02:14:10.957Z,67.50
2022-09-23T02:16:45.046Z,67.21
2022-09-23T02:19:19.992Z,67.09
2022-09-23T02:21:58.892Z,66.98
2022-09-23T02:24:32.152Z,67.28
2022-09-23T02:27:08.950Z,66.93
2022-09-23T02:29:48.942Z,67.06
2022-09-23T02:32:21.980Z,67.42
2022-09-23T02:34:58.609Z,67.66
2022-09-23T02:37:37.219Z,68.06
2022-09-23T02:40:15.720Z,67.87
2022-09-23T02:42:54.358Z,68.11
2022-09-23T02:45:22.702Z,68.14
2022-09-23T02:47:55.967Z,68.31
2022-09-23T02:50:26.166Z,68.54
2022-09-23T02:52:54.510Z,68.66
2022-09-23T02:55:26.582Z,68.18
2022-09-23T02:57:54.917Z,68.15
2022-09-23T03:00:23.273Z,68.56
2022-09-23T03:03:23.113Z,68.50
2022-09-23T03:05:57.858Z,67.79
2022-09-23T03:08:37.827Z,68.16
2022-09-23T03:11:08.636Z,67.57
2022-09-23T03:13:52.980Z,67.46
2022-09-23T03:16:31.017Z,67.20
2022-09-23T03:19:09.980Z,66.89
2022-09-23T03:21:44.999Z,66.83
2022-09-23T03:24:15.827Z,66.60
2022-09-23T03:26:47.622Z,66.81
2022-09-23T03:29:17.952Z,66.91
2022-09-23T03:31:46.514Z,67.41
2022-09-23T03:34:19.423Z,67.81
2022-09-23T03:36:57.181Z,67.81
2022-09-23T03:39:33.431Z,67.71
2022-09-23T03:42:07.890Z,67.68
2022-09-23T03:44:39.679Z,67.63
2022-09-23T03:47:08.079Z,67.64
2022-09-23T03:49:39.196Z,67.69
2022-09-23T03:52:09.171Z,67.94
2022-09-23T03:54:38.256Z,67.76
2022-09-23T03:57:07.555Z,67.81
2022-09-23T03:59:38.045Z,67.86
2022-09-23T04:02:07.961Z,67.77
2022-09-23T04:04:38.974Z,68.15
2022-09-23T04:07:08.826Z,68.14
2022-09-23T04:09:39.966Z,67.95
2022-09-23T04:12:09.112Z,68.25
2022-09-23T04:14:37.480Z,68.39
2022-09-23T04:17:05.988Z,67.70
2022-09-23T04:19:34.423Z,68.10
2022-09-23T04:22:02.758Z,67.84
2022-09-23T04:24:32.530Z,67.76
2022-09-23T04:27:00.888Z,67.67
2022-09-23T04:29:29.194Z,67.14
2022-09-23T04:31:57.837Z,67.50
2022-09-23T04:34:26.198Z,67.27
2022-09-23T04:36:54.781Z,67.66
2022-09-23T04:39:23.086Z,67.72
2022-09-23T04:41:53.930Z,67.72
2022-09-23T04:44:30.517Z,67.93
2022-09-23T04:46:58.951Z,67.79
2022-09-23T04:49:38.507Z,67.96
2022-09-23T04:52:07.369Z,68.63
2022-09-23T04:54:37.726Z,68.22
2022-09-23T04:57:07.876Z,67.91
2022-09-23T04:59:38.285Z,67.49
2022-09-23T05:02:06.736Z,67.36
2022-09-23T05:04:35.420Z,67.51
2022-09-23T05:07:04.421Z,67.57
2022-09-23T05:09:32.878Z,67.75
2022-09-23T05:12:01.231Z,67.71
2022-09-23T05:14:30.895Z,67.43
2022-09-23T05:16:59.202Z,67.79
2022-09-23T05:19:27.554Z,67.35
2022-09-23T05:21:57.800Z,67.24
2022-09-23T05:24:26.201Z,67.86
2022-09-23T05:26:55.849Z,67.68
2022-09-23T05:29:24.199Z,67.79
2022-09-23T05:31:54.205Z,67.93
2022-09-23T05:34:23.199Z,68.24
2022-09-23T05:36:52.496Z,68.47
2022-09-23T05:39:20.800Z,67.95
2022-09-23T05:41:49.114Z,68.20
2022-09-23T05:44:17.454Z,68.14
2022-09-23T05:46:45.826Z,68.37
2022-09-23T05:49:15.567Z,68.42
2022-09-23T05:51:43.939Z,68.43
2022-09-23T05:54:12.406Z,67.80
2022-09-23T05:56:40.760Z,68.47
2022-09-23T05:59:09.083Z,67.92
2022-09-23T06:01:38.695Z,68.05
2022-09-23T06:04:09.122Z,68.20
2022-09-23T06:06:41.392Z,68.17
2022-09-23T06:09:14.585Z,67.92
2022-09-23T06:11:43.325Z,68.32
2022-09-23T06:14:14.515Z,69.01
2022-09-23T06:16:43.060Z,68.90
2022-09-23T06:19:11.584Z,69.11
2022-09-23T06:21:41.585Z,68.77
2022-09-23T06:24:16.741Z,68.25
2022-09-23T06:26:46.397Z,68.01
2022-09-23T06:29:14.771Z,68.28
2022-09-23T06:31:43.467Z,68.22
2022-09-23T06:34:13.899Z,68.42
2022-09-23T06:36:46.416Z,68.45
2022-09-23T06:39:15.932Z,68.51
2022-09-23T06:41:45.149Z,68.66
2022-09-23T06:44:13.998Z,68.68
2022-09-23T06:46:42.414Z,68.84
2022-09-23T06:49:13.390Z,68.74
2022-09-23T06:51:43.244Z,68.78
2022-09-23T06:54:12.047Z,69.10
2022-09-23T06:56:40.826Z,68.83
2022-09-23T06:59:12.967Z,68.96
2022-09-23T07:01:41.438Z,68.95
2022-09-23T07:04:10.158Z,69.27
2022-09-23T07:06:38.579Z,69.18
2022-09-23T07:09:09.714Z,69.65
2022-09-23T07:11:39.443Z,69.57
2022-09-23T07:14:07.881Z,69.28
2022-09-23T07:16:36.664Z,69.40
2022-09-23T07:19:05.150Z,69.25
2022-09-23T07:21:33.651Z,70.15
2022-09-23T07:24:02.329Z,70.06
2022-09-23T07:26:34.199Z,70.07
2022-09-23T07:29:05.185Z,69.96
2022-09-23T07:31:39.817Z,70.08
2022-09-23T07:34:09.893Z,70.33
2022-09-23T07:36:40.858Z,70.13
2022-09-23T07:39:11.141Z,70.25
2022-09-23T07:41:41.777Z,69.98
2022-09-23T07:44:11.784Z,70.46
2022-09-23T07:46:40.464Z,70.57
2022-09-23T07:49:08.860Z,70.89
2022-09-23T07:51:40.064Z,70.07
2022-09-23T07:54:12.027Z,70.41
2022-09-23T07:56:42.803Z,70.49
2022-09-23T07:59:15.698Z,69.95
2022-09-23T08:01:46.682Z,70.88
2022-09-23T08:04:17.771Z,70.48
2022-09-23T08:06:49.137Z,70.73
2022-09-23T08:09:19.475Z,70.63
2022-09-23T08:11:50.764Z,70.68
2022-09-23T08:14:19.739Z,70.57
2022-09-23T08:16:48.305Z,70.73
2022-09-23T08:19:17.744Z,70.40
2022-09-23T08:21:47.735Z,70.58
2022-09-23T08:24:18.651Z,70.96
2022-09-23T08:26:49.575Z,71.03
2022-09-23T08:29:19.394Z,70.80
2022-09-23T08:31:49.492Z,70.78
2022-09-23T08:34:19.175Z,70.61
2022-09-23T08:36:48.128Z,70.31
2022-09-23T08:39:18.311Z,70.71
2022-09-23T08:42:03.202Z,70.41
2022-09-23T08:44:43.672Z,70.36
2022-09-23T08:47:19.394Z,70.72
2022-09-23T08:50:02.048Z,70.10
2022-09-23T08:52:35.780Z,70.13
2022-09-23T08:55:06.144Z,69.88
2022-09-23T08:58:07.900Z,69.33
2022-09-23T09:00:42.769Z,69.08
2022-09-23T09:03:21.970Z,68.92
2022-09-23T09:05:54.361Z,68.88
2022-09-23T09:08:26.509Z,68.72
2022-09-23T09:10:58.160Z,68.65
2022-09-23T09:13:32.982Z,68.09
2022-09-23T09:16:18.824Z,67.76
2022-09-23T09:18:59.785Z,67.65
2022-09-23T09:21:37.170Z,67.09
2022-09-23T09:24:17.403Z,66.61
2022-09-23T09:26:45.706Z,66.63
2022-09-23T09:29:34.893Z,66.07
2022-09-23T09:32:17.741Z,65.77
2022-09-23T09:34:54.062Z,65.52
2022-09-23T09:37:32.941Z,65.22
2022-09-23T09:40:02.073Z,65.35
2022-09-23T09:42:39.941Z,65.39
2022-09-23T09:45:19.691Z,65.00
2022-09-23T09:47:56.751Z,64.82
2022-09-23T09:50:45.470Z,64.63
2022-09-23T09:53:25.738Z,64.84
2022-09-23T09:56:06.036Z,65.08
2022-09-23T09:58:43.862Z,65.22
2022-09-23T10:01:24.667Z,65.00
2022-09-23T10:03:56.905Z,65.37
2022-09-23T10:06:29.942Z,65.25
2022-09-23T10:09:17.028Z,65.11
2022-09-23T10:12:04.398Z,65.10
2022-09-23T10:14:32.971Z,65.13
2022-09-23T10:17:07.271Z,65.22
2022-09-23T10:19:38.011Z,64.99
2022-09-23T10:22:21.324Z,65.06
2022-09-23T10:24:52.647Z,65.17
2022-09-23T10:27:29.166Z,64.64
2022-09-23T10:29:58.819Z,65.07
2022-09-23T10:32:33.796Z,64.71
2022-09-23T10:35:14.021Z,64.33
2022-09-23T10:37:43.934Z,64.09
2022-09-23T10:40:35.897Z,63.99
2022-09-23T10:43:42.612Z,63.70
2022-09-23T10:46:36.810Z,63.96
2022-09-23T10:49:27.731Z,64.08
2022-09-23T10:52:14.237Z,63.98
2022-09-23T10:54:53.331Z,63.67
2022-09-23T10:57:42.471Z,63.60
2022-09-23T11:00:23.273Z,63.84
2022-09-23T11:03:32.187Z,63.26
2022-09-23T11:06:13.599Z,63.18
2022-09-23T11:08:59.245Z,62.72
2022-09-23T11:11:38.744Z,62.77
2022-09-23T11:14:21.405Z,62.47
2022-09-23T11:17:05.889Z,62.61
2022-09-23T11:20:03.624Z,61.99
2022-09-23T11:22:48.162Z,62.11
2022-09-23T11:25:30.284Z,62.09
2022-09-23T11:28:18.266Z,61.53
2022-09-23T11:30:55.973Z,61.41
2022-09-23T11:33:42.610Z,60.91
2022-09-23T11:36:17.763Z,61.19
2022-09-23T11:38:51.119Z,61.05
2022-09-23T11:41:23.438Z,61.02
2022-09-23T11:43:57.127Z,60.71
2022-09-23T11:46:35.182Z,60.21
2022-09-23T11:49:10.906Z,60.26
2022-09-23T11:51:45.756Z,59.83
2022-09-23T11:54:21.155Z,59.47
2022-09-23T11:56:53.057Z,59.33
2022-09-23T11:59:39.333Z,59.26
2022-09-23T12:02:22.257Z,59.24
2022-09-23T12:05:02.454Z,59.29
2022-09-23T12:07:40.617Z,58.93
2022-09-23T12:10:12.893Z,58.82
2022-09-23T12:12:50.073Z,58.68
2022-09-23T12:15:32.063Z,58.65
2022-09-23T12:18:24.839Z,58.09
2022-09-23T12:21:38.743Z,57.69
2022-09-23T12:24:45.729Z,57.82
2022-09-23T12:27:24.980Z,57.89
2022-09-23T12:29:57.732Z,57.86
2022-09-23T12:32:26.835Z,57.87
2022-09-23T12:34:56.318Z,57.20
2022-09-23T12:37:28.982Z,56.40
2022-09-23T12:40:03.280Z,56.41
2022-09-23T12:42:33.703Z,56.20
2022-09-23T12:45:37.321Z,55.77
2022-09-23T12:48:26.395Z,56.26
2022-09-23T12:50:59.603Z,56.09
2022-09-23T12:53:59.301Z,55.34
2022-09-23T12:56:43.875Z,55.87
2022-09-23T12:59:25.165Z,55.29
2022-09-23T13:01:54.497Z,55.51
2022-09-23T13:05:01.975Z,55.03
2022-09-23T13:07:34.172Z,55.50
2022-09-23T13:10:16.210Z,54.62
2022-09-23T13:12:46.774Z,54.74
2022-09-23T13:15:29.146Z,54.13
2022-09-23T13:18:39.028Z,53.92
2022-09-23T13:21:18.678Z,54.29
2022-09-23T13:24:18.941Z,53.81
2022-09-23T13:26:48.302Z,54.27
2022-09-23T13:29:22.995Z,54.24
2022-09-23T13:31:53.236Z,54.04
2022-09-23T13:34:24.121Z,53.96
2022-09-23T13:36:53.591Z,53.72
2022-09-23T13:39:25.052Z,53.50
2022-09-23T13:41:56.056Z,53.46
2022-09-23T13:44:24.546Z,53.48
2022-09-23T13:46:58.663Z,53.43
2022-09-23T13:49:29.466Z,53.75
2022-09-23T13:51:58.465Z,54.00
2022-09-23T13:54:29.578Z,53.93
2022-09-23T13:56:58.400Z,53.87
2022-09-23T13:59:29.386Z,53.79
2022-09-23T14:02:08.231Z,53.44
2022-09-23T14:04:36.685Z,53.42
2022-09-23T14:07:05.818Z,52.92
2022-09-23T14:09:36.282Z,52.80
2022-09-23T14:12:08.316Z,52.43
2022-09-23T14:14:39.338Z,52.37
2022-09-23T14:17:11.219Z,52.47
2022-09-23T14:19:39.620Z,52.34
2022-09-23T14:22:24.276Z,52.24
2022-09-23T14:24:53.797Z,52.32
2022-09-23T14:27:29.246Z,51.94
2022-09-23T14:29:58.488Z,51.87
2022-09-23T14:32:29.927Z,51.74
2022-09-23T14:35:17.804Z,51.66
2022-09-23T14:38:05.752Z,51.96
2022-09-23T14:40:36.397Z,51.95
2022-09-23T14:43:07.363Z,51.72
2022-09-23T14:45:38.297Z,51.59
2022-09-23T14:48:11.264Z,51.63
2022-09-23T14:50:47.229Z,51.63
2022-09-23T14:53:34.629Z,51.01
2022-09-23T14:56:13.231Z,51.22
2022-09-23T14:58:49.471Z,51.66
2022-09-23T15:01:34.086Z,51.24
2022-09-23T15:04:15.334Z,51.33
2022-09-23T15:06:50.878Z,51.42
2022-09-23T15:09:24.332Z,51.27
2022-09-23T15:11:55.081Z,51.40
2022-09-23T15:14:37.104Z,51.53
2022-09-23T15:17:14.510Z,51.60
2022-09-23T15:19:44.504Z,51.82
2022-09-23T15:22:13.285Z,51.76
2022-09-23T15:24:44.790Z,51.44
2022-09-23T15:27:29.494Z,51.25
2022-09-23T15:30:12.643Z,51.61
2022-09-23T15:32:43.599Z,51.55
2022-09-23T15:35:16.444Z,51.43
2022-09-23T15:37:46.175Z,51.67
2022-09-23T15:40:23.160Z,51.61
2022-09-23T15:42:54.705Z,51.89
2022-09-23T15:45:36.325Z,51.54
2022-09-23T15:48:08.929Z,51.75
2022-09-23T15:50:39.385Z,51.87
2022-09-23T15:53:08.373Z,51.97
2022-09-23T15:55:36.724Z,51.89
2022-09-23T15:58:05.073Z,52.10
2022-09-23T16:00:34.785Z,52.10
2022-09-23T16:03:04.268Z,52.16
2022-09-23T16:05:38.006Z,52.26
2022-09-23T16:08:10.150Z,52.09
2022-09-23T16:10:39.299Z,52.14
2022-09-23T16:13:11.885Z,52.33
2022-09-23T16:15:40.301Z,52.42
2022-09-23T16:18:09.404Z,52.84
2022-09-23T16:20:39.949Z,52.90
2022-09-23T16:23:34.935Z,53.24
2022-09-23T16:26:05.605Z,53.39
2022-09-23T16:28:34.236Z,53.59
2022-09-23T16:31:03.059Z,53.77
2022-09-23T16:33:31.483Z,54.04
2022-09-23T16:36:01.028Z,54.33
2022-09-23T16:38:31.740Z,54.53
2022-09-23T16:41:00.567Z,54.48
2022-09-23T16:43:31.679Z,54.66
2022-09-23T16:46:00.209Z,54.98
2022-09-23T16:48:28.608Z,55.39
2022-09-23T16:50:57.113Z,55.69
2022-09-23T16:53:26.428Z,55.91
2022-09-23T16:55:57.928Z,56.25
2022-09-23T16:58:26.304Z,56.64
2022-09-23T17:01:16.264Z,56.83
2022-09-23T17:03:44.785Z,57.02
2022-09-23T17:06:14.033Z,57.13
2022-09-23T17:08:44.820Z,57.60
2022-09-23T17:11:16.891Z,57.69
2022-09-23T17:13:45.678Z,57.71
2022-09-23T17:16:24.207Z,58.20
2022-09-23T17:18:55.380Z,58.02
2022-09-23T17:21:25.908Z,58.30
2022-09-23T17:23:54.784Z,58.19
2022-09-23T17:26:26.274Z,58.28
2022-09-23T17:28:56.852Z,58.86
2022-09-23T17:31:26.275Z,59.29
2022-09-23T17:33:54.856Z,59.64
2022-09-23T17:36:23.297Z,60.35
2022-09-23T17:38:53.615Z,60.94
2022-09-23T17:41:24.297Z,61.38
2022-09-23T17:43:58.526Z,61.51
2022-09-23T17:46:30.196Z,61.66
2022-09-23T17:48:58.894Z,61.47
2022-09-23T17:51:27.618Z,61.62
2022-09-23T17:53:55.913Z,62.14
2022-09-23T17:56:29.777Z,62.79
2022-09-23T17:59:01.965Z,63.02
2022-09-23T18:01:31.136Z,62.81
2022-09-23T18:04:01.175Z,63.66
2022-09-23T18:06:31.617Z,63.65
2022-09-23T18:09:03.898Z,63.94
2022-09-23T18:11:35.811Z,64.26
2022-09-23T18:14:06.566Z,64.52
2022-09-23T18:16:40.046Z,64.78
2022-09-23T18:19:11.728Z,64.60
2022-09-23T18:21:42.380Z,64.78
2022-09-23T18:27:01.358Z,65.32
2022-09-23T18:29:29.721Z,65.07
2022-09-23T18:31:59.253Z,65.22
2022-09-23T18:34:28.591Z,65.63
2022-09-23T18:36:57.248Z,65.84
2022-09-23T18:39:25.702Z,65.81
2022-09-23T18:41:54.877Z,66.77
2022-09-23T18:44:24.612Z,66.98
2022-09-23T18:46:53.143Z,67.25
2022-09-23T18:49:38.913Z,67.67
2022-09-23T18:52:07.324Z,67.33
2022-09-23T18:54:35.801Z,67.49
2022-09-23T18:57:04.466Z,67.18
2022-09-23T18:59:34.174Z,67.24
2022-09-23T19:02:02.721Z,67.17
2022-09-23T19:04:31.210Z,67.07
2022-09-23T19:06:59.632Z,67.15
2022-09-23T19:09:28.740Z,67.15
2022-09-23T19:11:57.742Z,67.22
2022-09-23T19:14:26.685Z,67.64
2022-09-23T19:16:56.389Z,67.63
2022-09-23T19:19:24.682Z,68.05
2022-09-23T19:21:53.709Z,68.33
2022-09-23T19:24:22.086Z,68.93
2022-09-23T19:26:50.837Z,68.92
2022-09-23T19:29:21.686Z,69.22
2022-09-23T19:31:51.023Z,69.33
2022-09-23T19:34:23.774Z,69.84
2022-09-23T19:36:52.826Z,70.03
2022-09-23T19:39:22.934Z,69.98
2022-09-23T19:41:52.452Z,69.98
2022-09-23T19:44:20.965Z,70.10
2022-09-23T19:46:55.160Z,70.32
2022-09-23T19:49:26.933Z,70.37
2022-09-23T19:51:56.542Z,70.26
2022-09-23T19:54:26.874Z,69.78
2022-09-23T19:56:55.541Z,69.82
2022-09-23T19:59:23.918Z,69.86
2022-09-23T20:01:52.367Z,70.45
2022-09-23T20:04:20.975Z,70.85
2022-09-23T20:06:51.599Z,71.00
2022-09-23T20:09:20.114Z,71.05
2022-09-23T20:11:48.501Z,70.86
2022-09-23T20:14:17.233Z,70.60
2022-09-23T20:16:45.622Z,70.65
2022-09-23T20:19:14.093Z,70.99
2022-09-23T20:21:42.493Z,71.13
2022-09-23T20:24:13.092Z,71.21
2022-09-23T20:26:59.159Z,71.25
2022-09-23T20:29:27.705Z,71.53
2022-09-23T20:31:58.619Z,71.68
2022-09-23T20:34:29.670Z,71.73
2022-09-23T20:36:59.211Z,71.45
2022-09-23T20:39:29.191Z,71.12
2022-09-23T20:41:58.355Z,71.34
2022-09-23T20:44:26.773Z,71.23
2022-09-23T20:46:55.280Z,71.48
2022-09-23T20:49:23.603Z,71.78
2022-09-23T20:51:52.111Z,71.65
2022-09-23T20:54:21.251Z,71.78
2022-09-23T20:56:51.030Z,71.54
2022-09-23T20:59:19.374Z,71.88
2022-09-23T21:01:47.997Z,72.11
2022-09-23T21:04:16.575Z,71.97
2022-09-23T21:06:44.983Z,71.98
2022-09-23T21:09:13.284Z,71.89
2022-09-23T21:11:41.935Z,71.98
2022-09-23T21:14:11.725Z,72.40
2022-09-23T21:16:40.295Z,72.58
2022-09-23T21:19:09.007Z,72.64
2022-09-23T21:21:37.425Z,72.59
2022-09-23T21:24:45.348Z,72.30
2022-09-23T21:26:54.611Z,71.83
2022-09-23T21:29:24.349Z,71.48
2022-09-23T21:31:52.727Z,71.39
2022-09-23T21:34:21.337Z,71.24
2022-09-23T21:36:49.728Z,71.61
2022-09-23T21:39:18.096Z,71.75
2022-09-23T21:41:46.426Z,71.84
2022-09-23T21:44:14.948Z,72.12
2022-09-23T21:46:44.708Z,72.50
2022-09-23T21:49:13.348Z,72.30
2022-09-23T21:51:42.436Z,72.25
2022-09-23T21:54:14.317Z,72.43
2022-09-23T21:56:42.915Z,72.67
2022-09-23T21:59:11.846Z,72.58
2022-09-23T22:01:43.576Z,72.77
2022-09-23T22:04:17.333Z,73.02
2022-09-23T22:06:46.982Z,72.87
2022-09-23T22:09:17.161Z,73.17
2022-09-23T22:12:03.082Z,73.11
2022-09-23T22:14:31.850Z,72.80
2022-09-23T22:17:02.311Z,72.98
2022-09-23T22:19:35.564Z,73.27
2022-09-23T22:22:07.849Z,73.64
2022-09-23T22:24:36.236Z,73.48
2022-09-23T22:27:04.656Z,73.41
2022-09-23T22:29:56.104Z,73.43
2022-09-23T22:32:41.576Z,73.25
2022-09-23T22:35:13.579Z,73.25
2022-09-23T22:37:42.021Z,73.02
2022-09-23T22:40:14.095Z,73.02
2022-09-23T22:42:43.584Z,72.98
2022-09-23T22:45:13.442Z,73.22
2022-09-23T22:47:44.100Z,73.42
2022-09-23T22:50:15.086Z,73.38
2022-09-23T22:52:43.790Z,73.25
2022-09-23T22:55:12.956Z,73.15
2022-09-23T22:57:41.645Z,73.39
2022-09-23T23:00:11.262Z,73.56
2022-09-23T23:02:40.004Z,73.74
2022-09-23T23:05:18.290Z,74.05
2022-09-23T23:07:46.639Z,74.08
2022-09-23T23:10:15.447Z,73.95
2022-09-23T23:12:44.121Z,73.96
2022-09-23T23:15:12.854Z,73.91
2022-09-23T23:17:43.726Z,73.71
2022-09-23T23:20:12.366Z,73.54
2022-09-23T23:22:42.396Z,73.55
2022-09-23T23:25:11.018Z,73.68
2022-09-23T23:27:39.407Z,73.82
2022-09-23T23:30:09.384Z,73.53
2022-09-23T23:32:37.704Z,73.54
2022-09-23T23:35:06.918Z,73.78
2022-09-23T23:37:36.005Z,73.80
2022-09-23T23:40:06.335Z,73.65
2022-09-23T23:42:34.795Z,73.88
2022-09-23T23:45:03.185Z,73.87
2022-09-23T23:47:31.480Z,73.56
2022-09-23T23:49:59.818Z,73.61
2022-09-23T23:52:28.135Z,73.83
2022-09-23T23:54:56.522Z,73.75
2022-09-23T23:57:26.200Z,73.77
2022-09-23T23:59:54.756Z,73.87
